sensor_id;sensor_type;location;lat;lon;timestamp;temperature;humidity
3727;DHT22;1879;45.876;12.300;2023-08-12T00:00:31;22.80;99.90
3727;DHT22;1879;45.876;12.300;2023-08-12T00:02:58;22.80;99.90
3727;DHT22;1879;45.876;12.300;2023-08-12T00:05:25;22.80;99.90
3727;DHT22;1879;45.876;12.300;2023-08-12T00:07:52;22.90;99.90
3727;DHT22;1879;45.876;12.300;2023-08-12T00:10:21;22.90;99.90
3727;DHT22;1879;45.876;12.300;2023-08-12T00:12:48;22.90;99.90
3727;DHT22;1879;45.876;12.300;2023-08-12T00:15:15;22.90;99.90
3727;DHT22;1879;45.876;12.300;2023-08-12T00:17:42;22.90;99.90
3727;DHT22;1879;45.876;12.300;2023-08-12T00:20:10;22.90;99.90
3727;DHT22;1879;45.876;12.300;2023-08-12T00:22:38;22.90;99.90
3727;DHT22;1879;45.876;12.300;2023-08-12T00:25:06;22.90;99.90
3727;DHT22;1879;45.876;12.300;2023-08-12T00:27:34;22.90;99.90
3727;DHT22;1879;45.876;12.300;2023-08-12T00:30:03;22.90;99.90
3727;DHT22;1879;45.876;12.300;2023-08-12T00:32:31;22.90;99.90
3727;DHT22;1879;45.876;12.300;2023-08-12T00:34:58;22.80;99.90
3727;DHT22;1879;45.876;12.300;2023-08-12T00:37:25;22.90;99.90
3727;DHT22;1879;45.876;12.300;2023-08-12T00:39:51;22.80;99.90
3727;DHT22;1879;45.876;12.300;2023-08-12T00:42:18;22.80;99.90
3727;DHT22;1879;45.876;12.300;2023-08-12T00:44:47;22.80;99.90
3727;DHT22;1879;45.876;12.300;2023-08-12T00:47:14;22.70;99.90
3727;DHT22;1879;45.876;12.300;2023-08-12T00:49:42;22.70;99.90
3727;DHT22;1879;45.876;12.300;2023-08-12T00:52:11;22.70;99.90
3727;DHT22;1879;45.876;12.300;2023-08-12T00:54:38;22.60;99.90
3727;DHT22;1879;45.876;12.300;2023-08-12T00:57:06;22.60;99.90
3727;DHT22;1879;45.876;12.300;2023-08-12T00:59:35;22.60;99.90
3727;DHT22;1879;45.876;12.300;2023-08-12T01:02:05;22.50;99.90
3727;DHT22;1879;45.876;12.300;2023-08-12T01:04:32;22.50;99.90
3727;DHT22;1879;45.876;12.300;2023-08-12T01:06:59;22.50;99.90
3727;DHT22;1879;45.876;12.300;2023-08-12T01:09:26;22.40;99.90
3727;DHT22;1879;45.876;12.300;2023-08-12T01:11:59;22.40;99.90
3727;DHT22;1879;45.876;12.300;2023-08-12T01:14:35;22.40;99.90
3727;DHT22;1879;45.876;12.300;2023-08-12T01:17:07;22.30;99.90
3727;DHT22;1879;45.876;12.300;2023-08-12T01:19:37;22.30;99.90
3727;DHT22;1879;45.876;12.300;2023-08-12T01:22:07;22.40;99.90
3727;DHT22;1879;45.876;12.300;2023-08-12T01:24:37;22.30;99.90
3727;DHT22;1879;45.876;12.300;2023-08-12T01:27:05;22.30;99.90
3727;DHT22;1879;45.876;12.300;2023-08-12T01:29:33;22.30;99.90
3727;DHT22;1879;45.876;12.300;2023-08-12T01:32:06;22.30;99.90
3727;DHT22;1879;45.876;12.300;2023-08-12T01:34:41;22.30;99.90
3727;DHT22;1879;45.876;12.300;2023-08-12T01:37:12;22.30;99.90
3727;DHT22;1879;45.876;12.300;2023-08-12T01:39:43;22.30;99.90
3727;DHT22;1879;45.876;12.300;2023-08-12T01:42:12;22.30;99.90
3727;DHT22;1879;45.876;12.300;2023-08-12T01:44:40;22.30;99.90
3727;DHT22;1879;45.876;12.300;2023-08-12T01:47:08;22.30;99.90
3727;DHT22;1879;45.876;12.300;2023-08-12T01:49:35;22.30;99.90
3727;DHT22;1879;45.876;12.300;2023-08-12T01:52:02;22.40;99.90
3727;DHT22;1879;45.876;12.300;2023-08-12T01:54:30;22.60;99.90
3727;DHT22;1879;45.876;12.300;2023-08-12T01:57:02;22.50;99.90
3727;DHT22;1879;45.876;12.300;2023-08-12T01:59:31;22.50;99.90
3727;DHT22;1879;45.876;12.300;2023-08-12T02:01:58;22.40;99.90
3727;DHT22;1879;45.876;12.300;2023-08-12T02:04:25;22.30;99.90
3727;DHT22;1879;45.876;12.300;2023-08-12T02:06:52;22.30;99.90
3727;DHT22;1879;45.876;12.300;2023-08-12T02:09:20;22.20;99.90
3727;DHT22;1879;45.876;12.300;2023-08-12T02:11:47;22.20;99.90
3727;DHT22;1879;45.876;12.300;2023-08-12T02:14:16;22.10;99.90
3727;DHT22;1879;45.876;12.300;2023-08-12T02:16:43;22.10;99.90
3727;DHT22;1879;45.876;12.300;2023-08-12T02:19:10;22.10;99.90
3727;DHT22;1879;45.876;12.300;2023-08-12T02:21:37;22.10;99.90
3727;DHT22;1879;45.876;12.300;2023-08-12T02:24:04;22.00;99.90
3727;DHT22;1879;45.876;12.300;2023-08-12T02:26:32;22.00;99.90
3727;DHT22;1879;45.876;12.300;2023-08-12T02:28:59;22.00;99.90
3727;DHT22;1879;45.876;12.300;2023-08-12T02:31:27;22.00;99.90
3727;DHT22;1879;45.876;12.300;2023-08-12T02:33:54;22.00;99.90
3727;DHT22;1879;45.876;12.300;2023-08-12T02:36:21;22.10;99.90
3727;DHT22;1879;45.876;12.300;2023-08-12T02:38:48;22.10;99.90
3727;DHT22;1879;45.876;12.300;2023-08-12T02:41:15;22.10;99.90
3727;DHT22;1879;45.876;12.300;2023-08-12T02:43:42;22.10;99.90
3727;DHT22;1879;45.876;12.300;2023-08-12T02:46:09;22.00;99.90
3727;DHT22;1879;45.876;12.300;2023-08-12T02:48:37;22.00;99.90
3727;DHT22;1879;45.876;12.300;2023-08-12T02:51:04;22.00;99.90
3727;DHT22;1879;45.876;12.300;2023-08-12T02:53:31;21.90;99.90
3727;DHT22;1879;45.876;12.300;2023-08-12T02:55:58;22.00;99.90
3727;DHT22;1879;45.876;12.300;2023-08-12T02:58:25;22.00;99.90
3727;DHT22;1879;45.876;12.300;2023-08-12T03:00:54;21.90;99.90
3727;DHT22;1879;45.876;12.300;2023-08-12T03:03:21;21.90;99.90
3727;DHT22;1879;45.876;12.300;2023-08-12T03:05:50;21.90;99.90
3727;DHT22;1879;45.876;12.300;2023-08-12T03:08:17;21.80;99.90
3727;DHT22;1879;45.876;12.300;2023-08-12T03:10:44;21.80;99.90
3727;DHT22;1879;45.876;12.300;2023-08-12T03:13:15;21.60;99.90
3727;DHT22;1879;45.876;12.300;2023-08-12T03:15:41;21.70;99.90
3727;DHT22;1879;45.876;12.300;2023-08-12T03:18:09;21.70;99.90
3727;DHT22;1879;45.876;12.300;2023-08-12T03:20:37;21.70;99.90
3727;DHT22;1879;45.876;12.300;2023-08-12T03:23:05;21.70;99.90
3727;DHT22;1879;45.876;12.300;2023-08-12T03:25:32;21.70;99.90
3727;DHT22;1879;45.876;12.300;2023-08-12T03:27:59;21.80;99.90
3727;DHT22;1879;45.876;12.300;2023-08-12T03:30:26;21.80;99.90
3727;DHT22;1879;45.876;12.300;2023-08-12T03:32:53;21.80;99.90
3727;DHT22;1879;45.876;12.300;2023-08-12T03:35:20;21.80;99.90
3727;DHT22;1879;45.876;12.300;2023-08-12T03:37:47;21.70;99.90
3727;DHT22;1879;45.876;12.300;2023-08-12T03:40:15;21.70;99.90
3727;DHT22;1879;45.876;12.300;2023-08-12T03:42:42;21.70;99.90
3727;DHT22;1879;45.876;12.300;2023-08-12T03:45:10;21.70;99.90
3727;DHT22;1879;45.876;12.300;2023-08-12T03:47:37;21.70;99.90
3727;DHT22;1879;45.876;12.300;2023-08-12T03:50:05;21.70;99.90
3727;DHT22;1879;45.876;12.300;2023-08-12T03:52:32;21.70;99.90
3727;DHT22;1879;45.876;12.300;2023-08-12T03:54:59;21.70;99.90
3727;DHT22;1879;45.876;12.300;2023-08-12T03:57:28;21.70;99.90
3727;DHT22;1879;45.876;12.300;2023-08-12T03:59:55;21.60;99.90
3727;DHT22;1879;45.876;12.300;2023-08-12T04:02:22;21.60;99.90
3727;DHT22;1879;45.876;12.300;2023-08-12T04:04:49;21.60;99.90
3727;DHT22;1879;45.876;12.300;2023-08-12T04:07:16;21.60;99.90
3727;DHT22;1879;45.876;12.300;2023-08-12T04:09:43;21.60;99.90
3727;DHT22;1879;45.876;12.300;2023-08-12T04:12:10;21.50;99.90
3727;DHT22;1879;45.876;12.300;2023-08-12T04:14:38;21.50;99.90
3727;DHT22;1879;45.876;12.300;2023-08-12T04:17:06;21.50;99.90
3727;DHT22;1879;45.876;12.300;2023-08-12T04:19:33;21.50;99.90
3727;DHT22;1879;45.876;12.300;2023-08-12T04:22:00;21.50;99.90
3727;DHT22;1879;45.876;12.300;2023-08-12T04:24:27;21.50;99.90
3727;DHT22;1879;45.876;12.300;2023-08-12T04:26:54;21.50;99.90
3727;DHT22;1879;45.876;12.300;2023-08-12T04:29:21;21.60;99.90
3727;DHT22;1879;45.876;12.300;2023-08-12T04:31:50;21.50;99.90
3727;DHT22;1879;45.876;12.300;2023-08-12T04:34:18;21.50;99.90
3727;DHT22;1879;45.876;12.300;2023-08-12T04:36:45;21.50;99.90
3727;DHT22;1879;45.876;12.300;2023-08-12T04:39:12;21.40;99.90
3727;DHT22;1879;45.876;12.300;2023-08-12T04:41:40;21.40;99.90
3727;DHT22;1879;45.876;12.300;2023-08-12T04:44:08;21.40;99.90
3727;DHT22;1879;45.876;12.300;2023-08-12T04:46:35;21.50;99.90
3727;DHT22;1879;45.876;12.300;2023-08-12T04:49:04;21.50;99.90
3727;DHT22;1879;45.876;12.300;2023-08-12T04:51:31;21.50;99.90
3727;DHT22;1879;45.876;12.300;2023-08-12T04:53:58;21.50;99.90
3727;DHT22;1879;45.876;12.300;2023-08-12T04:56:26;21.60;99.90
3727;DHT22;1879;45.876;12.300;2023-08-12T04:58:54;21.60;99.90
3727;DHT22;1879;45.876;12.300;2023-08-12T05:01:21;21.60;99.90
3727;DHT22;1879;45.876;12.300;2023-08-12T05:03:48;21.60;99.90
3727;DHT22;1879;45.876;12.300;2023-08-12T05:06:17;21.70;99.90
3727;DHT22;1879;45.876;12.300;2023-08-12T05:08:44;21.80;99.90
3727;DHT22;1879;45.876;12.300;2023-08-12T05:11:11;21.80;99.90
3727;DHT22;1879;45.876;12.300;2023-08-12T05:13:38;21.90;99.90
3727;DHT22;1879;45.876;12.300;2023-08-12T05:16:05;21.90;99.90
3727;DHT22;1879;45.876;12.300;2023-08-12T05:18:32;21.90;99.90
3727;DHT22;1879;45.876;12.300;2023-08-12T05:20:59;21.90;99.90
3727;DHT22;1879;45.876;12.300;2023-08-12T05:23:28;22.00;99.90
3727;DHT22;1879;45.876;12.300;2023-08-12T05:25:55;22.10;99.90
3727;DHT22;1879;45.876;12.300;2023-08-12T05:28:22;22.10;99.90
3727;DHT22;1879;45.876;12.300;2023-08-12T05:30:49;22.10;99.90
3727;DHT22;1879;45.876;12.300;2023-08-12T05:33:16;22.10;99.90
3727;DHT22;1879;45.876;12.300;2023-08-12T05:35:43;22.10;99.90
3727;DHT22;1879;45.876;12.300;2023-08-12T05:38:13;22.10;99.90
3727;DHT22;1879;45.876;12.300;2023-08-12T05:40:42;22.10;99.90
3727;DHT22;1879;45.876;12.300;2023-08-12T05:43:09;22.10;99.90
3727;DHT22;1879;45.876;12.300;2023-08-12T05:45:36;22.10;99.90
3727;DHT22;1879;45.876;12.300;2023-08-12T05:48:04;22.10;99.90
3727;DHT22;1879;45.876;12.300;2023-08-12T05:50:31;22.10;99.90
3727;DHT22;1879;45.876;12.300;2023-08-12T05:52:58;22.20;99.90
3727;DHT22;1879;45.876;12.300;2023-08-12T05:55:25;22.20;99.90
3727;DHT22;1879;45.876;12.300;2023-08-12T05:57:53;22.30;99.90
3727;DHT22;1879;45.876;12.300;2023-08-12T06:00:20;22.40;99.90
3727;DHT22;1879;45.876;12.300;2023-08-12T06:02:47;22.40;99.90
3727;DHT22;1879;45.876;12.300;2023-08-12T06:05:15;22.50;99.90
3727;DHT22;1879;45.876;12.300;2023-08-12T06:07:42;22.60;99.90
3727;DHT22;1879;45.876;12.300;2023-08-12T06:10:09;22.70;99.90
3727;DHT22;1879;45.876;12.300;2023-08-12T06:12:36;22.80;99.90
3727;DHT22;1879;45.876;12.300;2023-08-12T06:15:05;22.80;99.90
3727;DHT22;1879;45.876;12.300;2023-08-12T06:17:33;22.90;99.90
3727;DHT22;1879;45.876;12.300;2023-08-12T06:20:00;23.00;99.90
3727;DHT22;1879;45.876;12.300;2023-08-12T06:22:27;23.10;99.90
3727;DHT22;1879;45.876;12.300;2023-08-12T06:24:54;23.10;99.90
3727;DHT22;1879;45.876;12.300;2023-08-12T06:27:21;23.20;99.90
3727;DHT22;1879;45.876;12.300;2023-08-12T06:29:48;23.30;99.90
3727;DHT22;1879;45.876;12.300;2023-08-12T06:32:16;23.30;99.90
3727;DHT22;1879;45.876;12.300;2023-08-12T06:34:43;23.40;99.90
3727;DHT22;1879;45.876;12.300;2023-08-12T06:37:10;23.50;99.90
3727;DHT22;1879;45.876;12.300;2023-08-12T06:39:37;23.50;99.90
3727;DHT22;1879;45.876;12.300;2023-08-12T06:42:05;23.60;99.90
3727;DHT22;1879;45.876;12.300;2023-08-12T06:44:32;23.60;99.90
3727;DHT22;1879;45.876;12.300;2023-08-12T06:46:59;23.70;99.90
3727;DHT22;1879;45.876;12.300;2023-08-12T06:49:27;23.70;99.90
3727;DHT22;1879;45.876;12.300;2023-08-12T06:51:54;23.80;99.90
3727;DHT22;1879;45.876;12.300;2023-08-12T06:54:21;23.80;99.90
3727;DHT22;1879;45.876;12.300;2023-08-12T06:56:50;23.90;99.90
3727;DHT22;1879;45.876;12.300;2023-08-12T06:59:17;23.90;99.90
3727;DHT22;1879;45.876;12.300;2023-08-12T07:01:44;24.00;99.90
3727;DHT22;1879;45.876;12.300;2023-08-12T07:04:11;24.00;99.90
3727;DHT22;1879;45.876;12.300;2023-08-12T07:06:39;24.10;99.90
3727;DHT22;1879;45.876;12.300;2023-08-12T07:09:06;24.20;99.90
3727;DHT22;1879;45.876;12.300;2023-08-12T07:11:33;24.20;99.90
3727;DHT22;1879;45.876;12.300;2023-08-12T07:14:00;24.20;99.90
3727;DHT22;1879;45.876;12.300;2023-08-12T07:16:27;24.30;99.90
3727;DHT22;1879;45.876;12.300;2023-08-12T07:18:54;24.30;99.90
3727;DHT22;1879;45.876;12.300;2023-08-12T07:21:21;24.30;99.90
3727;DHT22;1879;45.876;12.300;2023-08-12T07:23:50;24.40;99.90
3727;DHT22;1879;45.876;12.300;2023-08-12T07:26:19;24.40;99.90
3727;DHT22;1879;45.876;12.300;2023-08-12T07:28:46;24.40;99.90
3727;DHT22;1879;45.876;12.300;2023-08-12T07:31:13;24.50;99.90
3727;DHT22;1879;45.876;12.300;2023-08-12T07:33:40;24.50;99.90
3727;DHT22;1879;45.876;12.300;2023-08-12T07:36:07;24.60;99.90
3727;DHT22;1879;45.876;12.300;2023-08-12T07:38:34;24.60;99.90
3727;DHT22;1879;45.876;12.300;2023-08-12T07:41:03;24.70;99.90
3727;DHT22;1879;45.876;12.300;2023-08-12T07:43:30;24.70;99.90
3727;DHT22;1879;45.876;12.300;2023-08-12T07:45:57;24.70;99.90
3727;DHT22;1879;45.876;12.300;2023-08-12T07:48:24;24.80;99.90
3727;DHT22;1879;45.876;12.300;2023-08-12T07:50:56;24.80;99.90
3727;DHT22;1879;45.876;12.300;2023-08-12T07:53:23;24.90;99.90
3727;DHT22;1879;45.876;12.300;2023-08-12T07:55:50;24.90;99.90
3727;DHT22;1879;45.876;12.300;2023-08-12T07:58:19;25.00;99.90
3727;DHT22;1879;45.876;12.300;2023-08-12T08:00:46;25.00;99.90
3727;DHT22;1879;45.876;12.300;2023-08-12T08:03:13;25.10;99.90
3727;DHT22;1879;45.876;12.300;2023-08-12T08:05:40;25.10;99.90
3727;DHT22;1879;45.876;12.300;2023-08-12T08:08:08;25.20;99.90
3727;DHT22;1879;45.876;12.300;2023-08-12T08:10:35;25.30;99.90
3727;DHT22;1879;45.876;12.300;2023-08-12T08:13:02;25.40;99.90
3727;DHT22;1879;45.876;12.300;2023-08-12T08:15:30;25.40;99.90
3727;DHT22;1879;45.876;12.300;2023-08-12T08:17:57;25.50;99.90
3727;DHT22;1879;45.876;12.300;2023-08-12T08:20:24;25.50;99.90
3727;DHT22;1879;45.876;12.300;2023-08-12T08:22:51;25.50;99.90
3727;DHT22;1879;45.876;12.300;2023-08-12T08:25:21;25.60;99.90
3727;DHT22;1879;45.876;12.300;2023-08-12T08:27:48;25.60;99.90
3727;DHT22;1879;45.876;12.300;2023-08-12T08:30:15;25.60;99.90
3727;DHT22;1879;45.876;12.300;2023-08-12T08:32:43;25.70;99.90
3727;DHT22;1879;45.876;12.300;2023-08-12T08:35:12;25.70;99.90
3727;DHT22;1879;45.876;12.300;2023-08-12T08:37:40;25.70;99.90
3727;DHT22;1879;45.876;12.300;2023-08-12T08:40:08;25.80;99.90
3727;DHT22;1879;45.876;12.300;2023-08-12T08:42:37;25.90;99.90
3727;DHT22;1879;45.876;12.300;2023-08-12T08:45:13;26.00;99.90
3727;DHT22;1879;45.876;12.300;2023-08-12T08:47:41;26.00;99.90
3727;DHT22;1879;45.876;12.300;2023-08-12T08:50:10;26.00;99.90
3727;DHT22;1879;45.876;12.300;2023-08-12T08:52:37;26.00;99.90
3727;DHT22;1879;45.876;12.300;2023-08-12T08:55:05;26.10;99.90
3727;DHT22;1879;45.876;12.300;2023-08-12T08:57:32;26.20;99.90
3727;DHT22;1879;45.876;12.300;2023-08-12T08:59:59;26.20;99.90
3727;DHT22;1879;45.876;12.300;2023-08-12T09:02:26;26.30;99.90
3727;DHT22;1879;45.876;12.300;2023-08-12T09:04:53;26.30;99.90
3727;DHT22;1879;45.876;12.300;2023-08-12T09:07:23;26.30;99.90
3727;DHT22;1879;45.876;12.300;2023-08-12T09:09:52;26.30;99.90
3727;DHT22;1879;45.876;12.300;2023-08-12T09:12:20;26.40;99.90
3727;DHT22;1879;45.876;12.300;2023-08-12T09:14:47;26.40;99.90
3727;DHT22;1879;45.876;12.300;2023-08-12T09:17:14;26.50;99.90
3727;DHT22;1879;45.876;12.300;2023-08-12T09:19:42;26.50;99.90
3727;DHT22;1879;45.876;12.300;2023-08-12T09:22:09;26.60;99.90
3727;DHT22;1879;45.876;12.300;2023-08-12T09:24:38;26.60;99.90
3727;DHT22;1879;45.876;12.300;2023-08-12T09:27:05;26.60;99.90
3727;DHT22;1879;45.876;12.300;2023-08-12T09:29:33;26.70;99.90
3727;DHT22;1879;45.876;12.300;2023-08-12T09:32:09;26.70;99.90
3727;DHT22;1879;45.876;12.300;2023-08-12T09:34:36;26.80;99.90
3727;DHT22;1879;45.876;12.300;2023-08-12T09:37:03;26.90;99.90
3727;DHT22;1879;45.876;12.300;2023-08-12T09:39:31;27.10;99.90
3727;DHT22;1879;45.876;12.300;2023-08-12T09:42:00;27.00;99.90
3727;DHT22;1879;45.876;12.300;2023-08-12T09:44:28;27.10;99.90
3727;DHT22;1879;45.876;12.300;2023-08-12T09:46:57;27.20;99.90
3727;DHT22;1879;45.876;12.300;2023-08-12T09:49:24;27.20;99.90
3727;DHT22;1879;45.876;12.300;2023-08-12T09:51:53;27.20;99.90
3727;DHT22;1879;45.876;12.300;2023-08-12T09:54:21;27.40;99.90
3727;DHT22;1879;45.876;12.300;2023-08-12T09:56:52;27.50;99.90
3727;DHT22;1879;45.876;12.300;2023-08-12T09:59:24;27.60;99.90
3727;DHT22;1879;45.876;12.300;2023-08-12T10:01:53;27.70;99.90
3727;DHT22;1879;45.876;12.300;2023-08-12T10:04:22;27.70;99.90
3727;DHT22;1879;45.876;12.300;2023-08-12T10:06:50;27.80;99.90
3727;DHT22;1879;45.876;12.300;2023-08-12T10:09:17;27.90;99.90
3727;DHT22;1879;45.876;12.300;2023-08-12T10:11:45;27.90;99.90
3727;DHT22;1879;45.876;12.300;2023-08-12T10:14:13;27.90;99.90
3727;DHT22;1879;45.876;12.300;2023-08-12T10:16:45;27.90;99.90
3727;DHT22;1879;45.876;12.300;2023-08-12T10:19:15;28.00;99.90
3727;DHT22;1879;45.876;12.300;2023-08-12T10:21:44;28.10;99.90
3727;DHT22;1879;45.876;12.300;2023-08-12T10:24:11;28.10;99.90
3727;DHT22;1879;45.876;12.300;2023-08-12T10:26:40;28.10;99.90
3727;DHT22;1879;45.876;12.300;2023-08-12T10:29:07;28.20;99.90
3727;DHT22;1879;45.876;12.300;2023-08-12T10:31:35;28.30;99.90
3727;DHT22;1879;45.876;12.300;2023-08-12T10:34:03;28.40;99.90
3727;DHT22;1879;45.876;12.300;2023-08-12T10:36:31;28.40;99.90
3727;DHT22;1879;45.876;12.300;2023-08-12T10:39:00;28.40;99.90
3727;DHT22;1879;45.876;12.300;2023-08-12T10:41:28;28.50;99.90
3727;DHT22;1879;45.876;12.300;2023-08-12T10:44:00;28.70;99.90
3727;DHT22;1879;45.876;12.300;2023-08-12T10:46:31;28.70;99.90
3727;DHT22;1879;45.876;12.300;2023-08-12T10:49:03;28.90;99.90
3727;DHT22;1879;45.876;12.300;2023-08-12T10:51:46;29.10;99.90
3727;DHT22;1879;45.876;12.300;2023-08-12T10:54:14;29.20;99.80
3727;DHT22;1879;45.876;12.300;2023-08-12T10:57:04;29.30;99.70
3727;DHT22;1879;45.876;12.300;2023-08-12T10:59:58;29.30;99.20
3727;DHT22;1879;45.876;12.300;2023-08-12T11:02:29;29.40;98.90
3727;DHT22;1879;45.876;12.300;2023-08-12T11:05:00;29.50;99.00
3727;DHT22;1879;45.876;12.300;2023-08-12T11:07:32;29.50;98.70
3727;DHT22;1879;45.876;12.300;2023-08-12T11:10:03;29.60;98.40
3727;DHT22;1879;45.876;12.300;2023-08-12T11:12:33;29.60;98.30
3727;DHT22;1879;45.876;12.300;2023-08-12T11:15:01;29.50;98.30
3727;DHT22;1879;45.876;12.300;2023-08-12T11:17:33;29.40;98.10
3727;DHT22;1879;45.876;12.300;2023-08-12T11:20:04;29.40;97.90
3727;DHT22;1879;45.876;12.300;2023-08-12T11:22:33;29.30;97.40
3727;DHT22;1879;45.876;12.300;2023-08-12T11:25:02;29.50;97.40
3727;DHT22;1879;45.876;12.300;2023-08-12T11:27:36;29.50;97.10
3727;DHT22;1879;45.876;12.300;2023-08-12T11:30:05;29.60;96.90
3727;DHT22;1879;45.876;12.300;2023-08-12T11:32:32;30.00;96.70
3727;DHT22;1879;45.876;12.300;2023-08-12T11:34:59;30.40;96.30
3727;DHT22;1879;45.876;12.300;2023-08-12T11:37:28;30.80;95.20
3727;DHT22;1879;45.876;12.300;2023-08-12T11:39:55;30.80;94.90
3727;DHT22;1879;45.876;12.300;2023-08-12T11:42:22;30.80;94.10
3727;DHT22;1879;45.876;12.300;2023-08-12T11:44:49;31.10;94.00
3727;DHT22;1879;45.876;12.300;2023-08-12T11:47:16;31.10;93.80
3727;DHT22;1879;45.876;12.300;2023-08-12T11:49:43;31.30;93.90
3727;DHT22;1879;45.876;12.300;2023-08-12T11:52:11;31.60;93.80
3727;DHT22;1879;45.876;12.300;2023-08-12T11:54:40;31.40;92.10
3727;DHT22;1879;45.876;12.300;2023-08-12T11:57:08;31.60;92.50
3727;DHT22;1879;45.876;12.300;2023-08-12T11:59:36;31.80;91.70
3727;DHT22;1879;45.876;12.300;2023-08-12T12:02:03;32.10;91.10
3727;DHT22;1879;45.876;12.300;2023-08-12T12:04:31;32.20;91.50
3727;DHT22;1879;45.876;12.300;2023-08-12T12:06:58;32.50;91.20
3727;DHT22;1879;45.876;12.300;2023-08-12T12:09:26;32.60;91.00
3727;DHT22;1879;45.876;12.300;2023-08-12T12:11:54;32.50;90.30
3727;DHT22;1879;45.876;12.300;2023-08-12T12:14:21;32.60;90.30
3727;DHT22;1879;45.876;12.300;2023-08-12T12:16:49;33.00;90.20
3727;DHT22;1879;45.876;12.300;2023-08-12T12:19:18;33.20;88.50
3727;DHT22;1879;45.876;12.300;2023-08-12T12:21:46;33.20;88.80
3727;DHT22;1879;45.876;12.300;2023-08-12T12:24:14;33.20;87.10
3727;DHT22;1879;45.876;12.300;2023-08-12T12:26:41;33.30;87.50
3727;DHT22;1879;45.876;12.300;2023-08-12T12:29:10;33.30;87.10
3727;DHT22;1879;45.876;12.300;2023-08-12T12:31:39;33.40;85.70
3727;DHT22;1879;45.876;12.300;2023-08-12T12:34:07;33.60;85.50
3727;DHT22;1879;45.876;12.300;2023-08-12T12:36:36;33.50;83.90
3727;DHT22;1879;45.876;12.300;2023-08-12T12:39:04;33.70;84.80
3727;DHT22;1879;45.876;12.300;2023-08-12T12:41:31;33.90;85.00
3727;DHT22;1879;45.876;12.300;2023-08-12T12:44:00;34.10;84.30
3727;DHT22;1879;45.876;12.300;2023-08-12T12:46:29;34.10;83.70
3727;DHT22;1879;45.876;12.300;2023-08-12T12:48:56;34.20;83.10
3727;DHT22;1879;45.876;12.300;2023-08-12T12:51:23;34.10;82.30
3727;DHT22;1879;45.876;12.300;2023-08-12T12:53:50;34.00;81.30
3727;DHT22;1879;45.876;12.300;2023-08-12T12:56:17;34.00;81.30
3727;DHT22;1879;45.876;12.300;2023-08-12T12:58:44;34.10;78.10
3727;DHT22;1879;45.876;12.300;2023-08-12T13:01:13;34.30;79.30
3727;DHT22;1879;45.876;12.300;2023-08-12T13:03:41;34.40;79.10
3727;DHT22;1879;45.876;12.300;2023-08-12T13:06:08;34.60;78.60
3727;DHT22;1879;45.876;12.300;2023-08-12T13:08:35;34.80;78.30
3727;DHT22;1879;45.876;12.300;2023-08-12T13:11:02;34.80;77.10
3727;DHT22;1879;45.876;12.300;2023-08-12T13:13:29;34.80;77.50
3727;DHT22;1879;45.876;12.300;2023-08-12T13:15:56;35.00;77.60
3727;DHT22;1879;45.876;12.300;2023-08-12T13:18:23;35.10;77.50
3727;DHT22;1879;45.876;12.300;2023-08-12T13:20:51;35.20;77.20
3727;DHT22;1879;45.876;12.300;2023-08-12T13:23:18;35.20;76.10
3727;DHT22;1879;45.876;12.300;2023-08-12T13:25:45;35.10;75.80
3727;DHT22;1879;45.876;12.300;2023-08-12T13:28:12;34.70;74.90
3727;DHT22;1879;45.876;12.300;2023-08-12T13:30:39;34.60;75.50
3727;DHT22;1879;45.876;12.300;2023-08-12T13:33:06;34.70;76.00
3727;DHT22;1879;45.876;12.300;2023-08-12T13:35:34;34.80;75.10
3727;DHT22;1879;45.876;12.300;2023-08-12T13:38:02;34.90;74.70
3727;DHT22;1879;45.876;12.300;2023-08-12T13:40:29;34.90;74.20
3727;DHT22;1879;45.876;12.300;2023-08-12T13:42:56;34.80;74.90
3727;DHT22;1879;45.876;12.300;2023-08-12T13:45:23;34.80;76.00
3727;DHT22;1879;45.876;12.300;2023-08-12T13:47:50;35.00;75.60
3727;DHT22;1879;45.876;12.300;2023-08-12T13:50:18;35.10;75.50
3727;DHT22;1879;45.876;12.300;2023-08-12T13:52:45;35.20;75.50
3727;DHT22;1879;45.876;12.300;2023-08-12T13:55:14;35.40;75.50
3727;DHT22;1879;45.876;12.300;2023-08-12T13:57:41;35.50;74.90
3727;DHT22;1879;45.876;12.300;2023-08-12T14:00:09;35.60;75.00
3727;DHT22;1879;45.876;12.300;2023-08-12T14:02:38;35.50;74.40
3727;DHT22;1879;45.876;12.300;2023-08-12T14:05:06;35.50;74.10
3727;DHT22;1879;45.876;12.300;2023-08-12T14:07:33;35.40;75.00
3727;DHT22;1879;45.876;12.300;2023-08-12T14:10:00;35.40;75.90
3727;DHT22;1879;45.876;12.300;2023-08-12T14:12:29;35.30;74.50
3727;DHT22;1879;45.876;12.300;2023-08-12T14:14:56;35.30;73.60
3727;DHT22;1879;45.876;12.300;2023-08-12T14:17:23;35.00;73.50
3727;DHT22;1879;45.876;12.300;2023-08-12T14:19:51;35.00;74.20
3727;DHT22;1879;45.876;12.300;2023-08-12T14:22:19;35.20;73.50
3727;DHT22;1879;45.876;12.300;2023-08-12T14:24:46;35.30;73.30
3727;DHT22;1879;45.876;12.300;2023-08-12T14:27:14;35.40;73.00
3727;DHT22;1879;45.876;12.300;2023-08-12T14:29:45;35.50;73.00
3727;DHT22;1879;45.876;12.300;2023-08-12T14:32:12;35.20;73.00
3727;DHT22;1879;45.876;12.300;2023-08-12T14:34:41;34.80;73.60
3727;DHT22;1879;45.876;12.300;2023-08-12T14:37:10;34.50;74.00
3727;DHT22;1879;45.876;12.300;2023-08-12T14:39:37;34.50;73.90
3727;DHT22;1879;45.876;12.300;2023-08-12T14:42:05;34.60;74.30
3727;DHT22;1879;45.876;12.300;2023-08-12T14:44:34;34.60;73.50
3727;DHT22;1879;45.876;12.300;2023-08-12T14:47:02;34.50;73.60
3727;DHT22;1879;45.876;12.300;2023-08-12T14:49:30;34.60;73.90
3727;DHT22;1879;45.876;12.300;2023-08-12T14:51:57;34.50;73.30
3727;DHT22;1879;45.876;12.300;2023-08-12T14:54:24;34.60;74.10
3727;DHT22;1879;45.876;12.300;2023-08-12T14:56:51;34.80;74.20
3727;DHT22;1879;45.876;12.300;2023-08-12T14:59:18;34.80;73.30
3727;DHT22;1879;45.876;12.300;2023-08-12T15:01:45;34.90;74.10
3727;DHT22;1879;45.876;12.300;2023-08-12T15:04:13;35.00;73.90
3727;DHT22;1879;45.876;12.300;2023-08-12T15:06:42;35.10;74.40
3727;DHT22;1879;45.876;12.300;2023-08-12T15:09:09;34.90;73.90
3727;DHT22;1879;45.876;12.300;2023-08-12T15:11:36;34.70;74.50
3727;DHT22;1879;45.876;12.300;2023-08-12T15:14:03;34.60;74.30
3727;DHT22;1879;45.876;12.300;2023-08-12T15:16:30;34.70;74.90
3727;DHT22;1879;45.876;12.300;2023-08-12T15:18:58;34.80;74.40
3727;DHT22;1879;45.876;12.300;2023-08-12T15:21:26;34.80;74.50
3727;DHT22;1879;45.876;12.300;2023-08-12T15:23:53;34.80;74.10
3727;DHT22;1879;45.876;12.300;2023-08-12T15:26:20;34.60;74.60
3727;DHT22;1879;45.876;12.300;2023-08-12T15:28:49;34.60;74.70
3727;DHT22;1879;45.876;12.300;2023-08-12T15:31:16;34.70;75.00
3727;DHT22;1879;45.876;12.300;2023-08-12T15:33:43;34.80;74.20
3727;DHT22;1879;45.876;12.300;2023-08-12T15:36:10;34.70;74.80
3727;DHT22;1879;45.876;12.300;2023-08-12T15:38:39;34.70;74.70
3727;DHT22;1879;45.876;12.300;2023-08-12T15:41:12;34.80;74.80
3727;DHT22;1879;45.876;12.300;2023-08-12T15:43:40;34.90;73.90
3727;DHT22;1879;45.876;12.300;2023-08-12T15:46:07;34.80;73.80
3727;DHT22;1879;45.876;12.300;2023-08-12T15:48:34;34.90;74.60